Terminal Aerodrome Forecast
Issued by NWS Duluth, MN

Home | Current Version | Previous Version | Text Only | Print | Product List | Glossary On
Versions: 1 2 3 4 5 6 7 8 9 10 11 12 13 14 15 16 17 18 19 20 21 22 23
758
FTUS43 KDLH 171720
TAFDLH
TAF
KDLH 171720Z 1718/1818 35011G16KT 3SM BR VCSH OVC007
      TEMPO 1718/1720 2SM -RA BR OVC005
     FM172100 33011G20KT P6SM VCSH OVC010
     FM172300 33011G20KT P6SM OVC020
     FM180100 32007KT P6SM SCT025
     FM180600 31006KT 4SM BR SCT020
     FM181300 31007KT P6SM SCT050=

USA.gov is the U.S. government's official web portal to all federal, state and local government web resources and services.